Time;durP1;ratioP1;P1;durP2;ratioP2;P2;SDS_P1;SDS_P2;PMS_P1;PMS_P2;Temp;Humidity;BMP_temperature;BMP_pressure;BME280_temperature;BME280_humidity;BME280_pressure;Samples;Min_cycle;Max_cycle;Signal;HPM_P1;HPM_P2
2021/11/15 00:00:20;;;;;;;46.20;22.67;;;;;;;7.10;88.88;101951.69;5028234;28;20210;-79
2021/11/15 00:02:47;;;;;;;41.27;22.97;;;;;;;7.13;88.74;101953.47;5028242;28;20213;-78
2021/11/15 00:05:14;;;;;;;45.37;22.87;;;;;;;7.11;88.84;101947.38;5028935;28;20213;-78
2021/11/15 00:07:41;;;;;;;44.80;24.60;;;;;;;7.14;87.91;101952.66;5030198;28;20253;-79
2021/11/15 00:10:15;;;;;;;46.27;23.03;;;;;;;7.14;88.21;101970.81;5028036;28;20244;-79
2021/11/15 00:12:42;;;;;;;42.73;23.23;;;;;;;7.06;88.36;101973.25;5028338;28;20674;-79
2021/11/15 00:15:09;;;;;;;46.70;22.90;;;;;;;7.03;87.81;101968.00;5027648;28;20236;-79
2021/11/15 00:17:35;;;;;;;40.63;22.07;;;;;;;7.01;87.59;101974.00;5029336;28;20210;-78
2021/11/15 00:20:02;;;;;;;43.73;21.93;;;;;;;6.96;87.98;101961.81;5030314;28;20202;-78
2021/11/15 00:22:29;;;;;;;46.13;23.23;;;;;;;6.99;88.50;101950.59;5031460;28;20259;-79
2021/11/15 00:24:55;;;;;;;52.90;24.63;;;;;;;6.98;88.64;101946.28;5030971;28;20270;-78
2021/11/15 00:27:23;;;;;;;62.23;26.53;;;;;;;7.00;88.95;101934.19;5026730;28;20206;-78
2021/11/15 00:29:50;;;;;;;60.23;25.70;;;;;;;6.96;89.12;101927.19;5027480;28;20647;-79
2021/11/15 00:32:16;;;;;;;61.67;27.23;;;;;;;6.98;89.40;101925.50;5027869;28;20275;-78
2021/11/15 00:34:43;;;;;;;64.40;27.37;;;;;;;6.96;89.54;101920.28;5027714;28;20578;-78
2021/11/15 00:37:09;;;;;;;68.87;28.97;;;;;;;6.95;89.14;101909.84;5026704;28;20245;-79
2021/11/15 00:39:36;;;;;;;66.13;28.23;;;;;;;6.96;89.83;101909.03;5025299;28;20609;-78
2021/11/15 00:42:02;;;;;;;65.93;28.27;;;;;;;6.97;89.31;101902.97;5026033;28;20229;-78
2021/11/15 00:44:30;;;;;;;64.87;26.57;;;;;;;6.95;89.84;101897.75;5026228;28;20967;-79
2021/11/15 00:46:57;;;;;;;61.87;27.67;;;;;;;6.94;90.24;101895.13;5027707;28;20208;-78
2021/11/15 00:49:23;;;;;;;58.03;26.23;;;;;;;6.96;90.07;101888.25;5025482;28;20228;-78
2021/11/15 00:51:49;;;;;;;65.00;26.80;;;;;;;6.96;90.40;101886.53;5026698;28;20228;-78
2021/11/15 00:54:16;;;;;;;57.03;25.97;;;;;;;6.97;90.44;101893.44;5028820;28;20259;-78
2021/11/15 00:56:42;;;;;;;61.00;25.60;;;;;;;6.94;90.53;101890.81;5027533;28;20213;-78
2021/11/15 00:59:09;;;;;;;68.70;26.10;;;;;;;6.95;90.43;101897.75;5026289;28;20298;-78
2021/11/15 01:01:37;;;;;;;63.00;24.60;;;;;;;6.90;91.14;101893.31;5027147;28;20225;-78
2021/11/15 01:04:04;;;;;;;63.07;27.23;;;;;;;6.92;91.05;101884.72;5028941;28;20264;-79
2021/11/15 01:06:30;;;;;;;61.23;26.33;;;;;;;6.93;90.45;101886.44;5028084;28;21120;-78
2021/11/15 01:08:56;;;;;;;57.37;25.47;;;;;;;6.92;91.40;101879.53;5025069;28;20229;-78
2021/11/15 01:11:23;;;;;;;54.50;24.87;;;;;;;6.92;91.02;101876.06;5028159;28;20274;-78
2021/11/15 01:13:49;;;;;;;58.23;26.30;;;;;;;6.84;91.56;101865.53;5026724;28;20276;-78
2021/11/15 01:16:16;;;;;;;54.70;24.00;;;;;;;6.87;91.47;101859.50;5027559;28;20209;-78
2021/11/15 01:18:45;;;;;;;56.17;23.23;;;;;;;6.87;91.21;101869.91;5027174;28;20280;-78
2021/11/15 01:21:13;;;;;;;53.47;22.83;;;;;;;6.87;91.41;101865.56;5026897;28;20229;-78
2021/11/15 01:23:40;;;;;;;52.57;21.50;;;;;;;6.84;90.77;101864.63;5026046;28;20240;-78
2021/11/15 01:26:07;;;;;;;39.27;19.53;;;;;;;6.81;91.65;101855.06;5026732;28;20206;-78
2021/11/15 01:28:34;;;;;;;41.53;19.63;;;;;;;6.83;91.65;101847.31;5026040;28;20205;-78
2021/11/15 01:31:01;;;;;;;40.33;18.40;;;;;;;6.84;91.34;101851.66;5024811;28;20257;-79
2021/11/15 01:33:27;;;;;;;42.87;18.70;;;;;;;6.85;91.30;101848.22;5026642;28;20208;-78
2021/11/15 01:35:56;;;;;;;36.87;18.60;;;;;;;6.81;91.59;101842.09;5026239;28;20219;-79
2021/11/15 01:38:23;;;;;;;45.17;18.87;;;;;;;6.83;91.84;101840.41;5027408;28;20278;-78
2021/11/15 01:40:49;;;;;;;39.93;17.90;;;;;;;6.85;91.82;101851.69;5024459;28;20284;-79
2021/11/15 01:43:16;;;;;;;41.30;17.97;;;;;;;6.81;91.61;101839.50;5024145;28;20205;-78
2021/11/15 01:45:42;;;;;;;43.33;17.97;;;;;;;6.83;91.61;101837.81;5029104;28;20233;-78
2021/11/15 01:48:10;;;;;;;37.10;17.97;;;;;;;6.83;91.49;101845.59;5026741;28;21137;-78
2021/11/15 01:50:38;;;;;;;38.03;16.77;;;;;;;6.85;91.78;101840.44;5026445;28;20765;-78
2021/11/15 01:53:09;;;;;;;35.57;16.10;;;;;;;6.85;92.08;101837.84;5027555;28;20275;-79
2021/11/15 01:55:37;;;;;;;34.40;17.33;;;;;;;6.86;91.23;101845.66;5025527;28;20263;-79
2021/11/15 01:58:08;;;;;;;37.10;15.77;;;;;;;6.85;91.80;101843.91;5028120;28;20206;-79
2021/11/15 02:00:37;;;;;;;30.93;15.97;;;;;;;6.85;90.83;101845.63;5025750;28;20222;-78
2021/11/15 02:03:04;;;;;;;29.97;15.90;;;;;;;6.83;91.29;101839.53;5026768;28;20267;-78
2021/11/15 02:05:31;;;;;;;33.67;16.03;;;;;;;6.79;90.87;101830.81;5027043;28;20703;-78
2021/11/15 02:07:57;;;;;;;32.23;15.33;;;;;;;6.79;91.56;101830.81;5026731;28;20260;-78
2021/11/15 02:10:25;;;;;;;28.77;15.80;;;;;;;6.70;91.24;101828.94;5024677;28;20768;-78
2021/11/15 02:12:51;;;;;;;33.57;16.00;;;;;;;6.70;91.75;101825.44;5026167;28;20240;-79
2021/11/15 02:15:18;;;;;;;38.17;17.43;;;;;;;6.70;91.70;101812.47;5025919;28;20679;-79
2021/11/15 02:17:47;;;;;;;38.20;17.33;;;;;;;6.71;92.10;101804.72;5025652;28;20205;-79
2021/11/15 02:20:17;;;;;;;44.00;17.73;;;;;;;6.73;91.70;101805.63;5023800;28;20213;-78
2021/11/15 02:22:43;;;;;;;32.10;17.33;;;;;;;6.66;91.47;101813.25;5025445;28;20272;-78
2021/11/15 02:25:12;;;;;;;34.83;17.97;;;;;;;6.72;91.75;101811.66;5027965;28;20206;-78
2021/11/15 02:27:38;;;;;;;34.07;17.17;;;;;;;6.70;91.57;101812.47;5027723;28;20532;-78
2021/11/15 02:30:12;;;;;;;36.30;16.83;;;;;;;6.71;91.29;101822.88;5025862;28;20232;-79
2021/11/15 02:32:39;;;;;;;38.93;18.50;;;;;;;6.69;91.15;101816.78;5027970;28;20205;-79
2021/11/15 02:35:06;;;;;;;43.10;18.20;;;;;;;6.64;90.82;101818.44;5026414;28;20213;-79
2021/11/15 02:37:34;;;;;;;39.07;19.53;;;;;;;6.66;91.16;101824.53;5026176;28;20204;-78
2021/11/15 02:40:03;;;;;;;43.30;18.57;;;;;;;6.66;90.84;101821.03;5025291;28;20210;-78
2021/11/15 02:42:30;;;;;;;34.97;18.80;;;;;;;6.65;91.00;101827.94;5026028;28;20253;-79
2021/11/15 02:44:57;;;;;;;36.20;18.27;;;;;;;6.64;90.59;101822.72;5025134;28;20210;-79
2021/11/15 02:47:23;;;;;;;39.50;18.27;;;;;;;6.61;90.55;101833.06;5025869;28;20210;-78
2021/11/15 02:49:49;;;;;;;40.57;19.87;;;;;;;6.59;90.54;101835.63;5026319;28;20292;-78
2021/11/15 02:52:17;;;;;;;40.17;20.47;;;;;;;6.59;90.01;101840.81;5023760;28;20299;-79
2021/11/15 02:54:46;;;;;;;48.80;22.40;;;;;;;6.60;90.11;101847.75;5024457;28;20200;-78
2021/11/15 02:57:15;;;;;;;46.40;22.77;;;;;;;6.60;89.43;101863.31;5024339;28;20217;-78
2021/11/15 02:59:41;;;;;;;54.73;24.07;;;;;;;6.60;89.59;101870.22;5025252;28;20202;-78
2021/11/15 03:02:08;;;;;;;51.33;24.33;;;;;;;6.60;88.77;101889.28;5025914;28;20291;-79
2021/11/15 03:04:34;;;;;;;58.60;24.97;;;;;;;6.60;88.72;101883.19;5025082;28;20260;-78
2021/11/15 03:07:01;;;;;;;60.33;24.73;;;;;;;6.57;88.83;101881.41;5026627;28;20817;-78
2021/11/15 03:09:27;;;;;;;51.53;24.50;;;;;;;6.57;89.24;101889.19;5022806;28;20252;-79
2021/11/15 03:11:55;;;;;;;56.30;26.40;;;;;;;6.53;88.84;101882.19;5025811;28;20241;-78
2021/11/15 03:14:21;;;;;;;64.30;28.07;;;;;;;6.51;89.31;101866.59;5024808;28;20269;-78
2021/11/15 03:16:48;;;;;;;63.53;27.70;;;;;;;6.53;88.75;101879.59;5026074;28;20213;-79
2021/11/15 03:19:14;;;;;;;69.97;29.20;;;;;;;6.54;88.66;101876.13;5025288;28;20214;-79
2021/11/15 03:21:41;;;;;;;68.10;27.73;;;;;;;6.53;88.86;101870.09;5024324;28;20226;-78
2021/11/15 03:24:08;;;;;;;69.73;28.33;;;;;;;6.55;88.79;101867.53;5023956;28;20264;-78
2021/11/15 03:26:34;;;;;;;63.57;28.67;;;;;;;6.56;88.14;101879.63;5023339;28;20209;-79
2021/11/15 03:29:02;;;;;;;67.40;29.23;;;;;;;6.52;88.20;101889.09;5028837;28;20240;-79
2021/11/15 03:31:31;;;;;;;76.27;30.27;;;;;;;6.51;88.13;101895.13;5030383;28;20230;-78
2021/11/15 03:34:01;;;;;;;74.30;32.03;;;;;;;6.45;88.11;101910.56;5029993;28;20213;-78
2021/11/15 03:36:29;;;;;;;69.10;29.03;;;;;;;6.46;88.33;101914.00;5030887;28;20209;-79
2021/11/15 03:38:57;;;;;;;71.60;30.37;;;;;;;6.40;88.44;101906.97;5027786;28;20205;-79
2021/11/15 03:41:24;;;;;;;70.13;30.13;;;;;;;6.43;88.75;101901.88;5031135;28;20234;-78
2021/11/15 03:43:52;;;;;;;62.47;29.67;;;;;;;6.43;88.32;101898.41;5031908;28;20266;-79
2021/11/15 03:46:20;;;;;;;70.83;30.63;;;;;;;6.48;88.22;101900.25;5029318;28;20247;-79
2021/11/15 03:48:46;;;;;;;67.83;29.43;;;;;;;6.45;88.91;101902.78;5031760;28;20235;-79
2021/11/15 03:51:13;;;;;;;66.90;30.83;;;;;;;6.43;88.08;101908.78;5030985;28;20229;-79
2021/11/15 03:53:42;;;;;;;64.57;29.03;;;;;;;6.41;87.75;101910.47;5030129;28;20218;-79
2021/11/15 03:56:17;;;;;;;71.50;31.23;;;;;;;6.43;87.40;101926.94;5030069;28;20206;-79
2021/11/15 03:58:46;;;;;;;66.73;29.80;;;;;;;6.47;87.30;101933.94;5029280;28;20213;-79
2021/11/15 04:01:15;;;;;;;67.40;29.67;;;;;;;6.46;87.20;101946.03;5029286;28;20313;-78
2021/11/15 04:03:47;;;;;;;65.13;28.63;;;;;;;6.44;87.05;101970.16;5029170;28;20216;-79
2021/11/15 04:06:22;;;;;;;59.20;27.67;;;;;;;6.44;86.90;101967.56;5030054;28;20218;-79
2021/11/15 04:08:49;;;;;;;59.00;28.00;;;;;;;6.45;87.43;101971.94;5031119;28;20222;-79
2021/11/15 04:11:19;;;;;;;54.57;27.17;;;;;;;6.44;87.17;101964.97;5030608;28;20254;-79
2021/11/15 04:13:48;;;;;;;54.80;25.93;;;;;;;6.43;86.61;101974.50;5028025;28;20394;-79
2021/11/15 04:16:17;;;;;;;54.47;26.17;;;;;;;6.43;87.21;101978.81;5030441;28;20209;-79
2021/11/15 04:18:51;;;;;;;47.07;24.47;;;;;;;6.39;86.99;101972.66;5028641;28;20213;-79
2021/11/15 04:21:19;;;;;;;40.40;22.97;;;;;;;6.37;85.79;101971.75;5028927;28;20216;-78
2021/11/15 04:23:46;;;;;;;45.77;25.03;;;;;;;6.30;86.97;101962.06;5027725;28;20264;-79
2021/11/15 04:26:13;;;;;;;45.57;28.37;;;;;;;6.32;86.96;101958.69;5028001;28;20210;-78
2021/11/15 04:28:39;;;;;;;42.03;23.70;;;;;;;6.31;86.80;101963.84;5029290;28;20668;-79
2021/11/15 04:31:06;;;;;;;49.90;27.20;;;;;;;6.24;86.44;101973.19;5028152;28;20726;-78
2021/11/15 04:33:33;;;;;;;43.60;24.57;;;;;;;6.28;86.88;101972.44;5027512;28;20209;-79
2021/11/15 04:36:01;;;;;;;48.97;26.47;;;;;;;6.26;86.44;101974.09;5024881;28;20218;-78
2021/11/15 04:38:27;;;;;;;54.37;29.43;;;;;;;6.25;86.08;101972.34;5027104;28;20201;-78
2021/11/15 04:40:54;;;;;;;52.90;29.63;;;;;;;6.23;86.92;101974.03;5027422;28;20657;-78
2021/11/15 04:43:20;;;;;;;64.43;34.63;;;;;;;6.23;87.08;101963.66;5026611;28;20266;-78
2021/11/15 04:45:47;;;;;;;52.13;28.33;;;;;;;6.22;87.19;101961.03;5028253;28;20231;-79
2021/11/15 04:48:13;;;;;;;52.37;27.13;;;;;;;6.24;86.94;101968.00;5025216;28;20212;-78
2021/11/15 04:50:40;;;;;;;48.47;26.17;;;;;;;6.27;86.11;101954.25;5025300;28;20241;-78
2021/11/15 04:53:08;;;;;;;48.27;27.90;;;;;;;6.22;86.21;101967.06;5026115;28;20206;-79
2021/11/15 04:55:37;;;;;;;62.00;30.87;;;;;;;6.23;86.36;101983.53;5028475;28;20261;-78
2021/11/15 04:58:05;;;;;;;57.37;31.60;;;;;;;6.21;85.81;101978.31;5026253;28;20211;-78
2021/11/15 05:00:35;;;;;;;52.13;29.90;;;;;;;6.20;86.60;101973.94;5026346;28;20572;-78
2021/11/15 05:03:01;;;;;;;52.97;30.47;;;;;;;6.23;85.75;101984.41;5027447;28;20269;-78
2021/11/15 05:05:28;;;;;;;48.87;26.37;;;;;;;6.23;85.81;101975.75;5027617;28;20616;-79
2021/11/15 05:07:56;;;;;;;44.90;26.43;;;;;;;6.24;85.11;101993.06;5027999;28;20280;-79
2021/11/15 05:10:25;;;;;;;39.27;23.97;;;;;;;6.26;85.88;101992.22;5026924;28;20590;-78
2021/11/15 05:12:53;;;;;;;49.13;27.17;;;;;;;6.22;85.43;102000.78;5026609;28;20278;-78
2021/11/15 05:15:20;;;;;;;42.47;25.93;;;;;;;6.19;85.55;101995.53;5028351;28;20218;-79
2021/11/15 05:17:47;;;;;;;52.43;27.73;;;;;;;6.19;85.35;102000.72;5026160;28;20208;-78
2021/11/15 05:20:18;;;;;;;55.53;31.63;;;;;;;6.16;86.03;101990.28;5026170;28;20201;-78
2021/11/15 05:22:45;;;;;;;44.47;27.30;;;;;;;6.17;85.41;101999.81;5025042;28;20218;-78
2021/11/15 05:25:13;;;;;;;43.43;26.33;;;;;;;6.20;85.92;101986.91;5024325;28;20203;-79
2021/11/15 05:27:41;;;;;;;43.33;26.37;;;;;;;6.15;85.27;102004.09;5026327;28;20206;-79
2021/11/15 05:30:09;;;;;;;41.20;25.70;;;;;;;6.15;85.73;101988.53;5029411;28;20224;-78
2021/11/15 05:32:36;;;;;;;45.17;27.20;;;;;;;6.18;85.26;102004.16;5027022;28;20251;-78
2021/11/15 05:35:03;;;;;;;39.43;25.10;;;;;;;6.19;85.08;102003.31;5024318;28;20242;-78
2021/11/15 05:37:30;;;;;;;47.60;25.83;;;;;;;6.14;85.25;102000.63;5028366;28;20224;-78
2021/11/15 05:39:56;;;;;;;52.67;29.20;;;;;;;6.16;84.55;102016.19;5025364;28;20213;-78
2021/11/15 05:42:23;;;;;;;55.33;30.93;;;;;;;6.18;84.81;102018.84;5025077;28;20233;-78
2021/11/15 05:44:52;;;;;;;43.60;27.50;;;;;;;6.19;84.03;102024.06;5026562;28;20217;-78
2021/11/15 05:47:19;;;;;;;42.43;23.90;;;;;;;6.18;84.47;102042.16;5025123;28;20225;-78
2021/11/15 05:49:45;;;;;;;53.77;29.03;;;;;;;6.09;84.89;102035.91;5026397;28;20207;-78
2021/11/15 05:52:14;;;;;;;40.60;24.20;;;;;;;6.09;85.12;102024.69;5025584;28;20719;-78
2021/11/15 05:54:40;;;;;;;54.13;30.80;;;;;;;6.10;84.97;102024.69;5024684;28;20279;-78
2021/11/15 05:57:07;;;;;;;42.37;25.43;;;;;;;6.13;84.55;102029.09;5025707;28;20209;-78
2021/11/15 05:59:33;;;;;;;41.53;24.77;;;;;;;6.12;84.57;102027.34;5024180;28;20251;-78
2021/11/15 06:02:01;;;;;;;42.47;25.07;;;;;;;6.11;84.66;102038.56;5022582;28;20235;-79
2021/11/15 06:04:28;;;;;;;36.67;23.57;;;;;;;6.13;85.40;102036.88;5023865;28;20209;-78
2021/11/15 06:06:54;;;;;;;35.53;22.60;;;;;;;6.14;84.99;102043.81;5024446;28;20211;-78
2021/11/15 06:09:20;;;;;;;41.27;24.57;;;;;;;6.13;84.34;102050.72;5024022;28;20683;-78
2021/11/15 06:11:47;;;;;;;39.43;25.33;;;;;;;6.12;84.50;102035.97;5022385;28;20233;-78
2021/11/15 06:14:13;;;;;;;34.43;22.40;;;;;;;6.11;84.32;102041.16;5024477;28;20622;-78
2021/11/15 06:16:40;;;;;;;37.47;23.50;;;;;;;6.11;84.90;102034.25;5022984;28;20255;-78
2021/11/15 06:19:08;;;;;;;33.60;21.77;;;;;;;6.12;84.20;102045.47;5022967;28;20234;-78
2021/11/15 06:21:34;;;;;;;35.50;22.30;;;;;;;6.09;84.80;102046.28;5024246;28;20772;-78
2021/11/15 06:24:01;;;;;;;35.53;22.80;;;;;;;6.09;85.00;102042.81;5023721;28;20271;-78
2021/11/15 06:26:28;;;;;;;35.60;23.37;;;;;;;6.11;85.30;102043.75;5024030;28;20282;-77
2021/11/15 06:28:54;;;;;;;33.27;22.53;;;;;;;6.12;85.14;102048.94;5023473;28;20210;-79
2021/11/15 06:31:21;;;;;;;33.87;23.13;;;;;;;6.09;84.91;102035.06;5022346;28;20232;-78
2021/11/15 06:33:49;;;;;;;33.60;23.03;;;;;;;6.10;85.09;102036.78;5023329;28;20213;-79
2021/11/15 06:36:18;;;;;;;35.60;23.10;;;;;;;6.10;84.78;102024.69;5022232;28;20242;-81
2021/11/15 06:38:45;;;;;;;39.77;21.90;;;;;;;6.12;85.05;102025.59;5023851;28;20263;-77
2021/11/15 06:41:12;;;;;;;37.77;22.50;;;;;;;6.12;85.06;102025.59;5021905;28;20230;-79
2021/11/15 06:43:38;;;;;;;39.97;23.67;;;;;;;6.15;84.28;102037.78;5022101;28;20290;-79
2021/11/15 06:46:05;;;;;;;38.87;22.83;;;;;;;6.15;85.19;102038.66;5021499;28;20263;-79
2021/11/15 06:48:37;;;;;;;37.37;22.67;;;;;;;6.16;84.33;102049.91;5020610;28;20733;-78
2021/11/15 06:51:04;;;;;;;37.27;22.67;;;;;;;6.16;84.26;102042.13;5022364;28;20605;-78
2021/11/15 06:53:32;;;;;;;34.63;21.70;;;;;;;6.13;84.80;102037.75;5022565;28;20746;-78
2021/11/15 06:55:59;;;;;;;39.93;23.33;;;;;;;6.15;85.20;102041.25;5023481;28;20229;-79
2021/11/15 06:58:26;;;;;;;32.10;21.57;;;;;;;6.16;84.92;102047.31;5019883;28;20738;-78
2021/11/15 07:00:53;;;;;;;36.63;22.20;;;;;;;6.11;85.64;102048.94;5021876;28;20589;-78
2021/11/15 07:03:19;;;;;;;35.07;22.07;;;;;;;6.12;85.48;102029.91;5024831;28;20272;-81
2021/11/15 07:05:46;;;;;;;34.17;21.93;;;;;;;6.11;85.53;102034.25;5023043;28;20218;-79
2021/11/15 07:08:12;;;;;;;29.53;21.80;;;;;;;6.16;84.38;102036.94;5019966;28;20209;-80
2021/11/15 07:10:40;;;;;;;32.50;20.70;;;;;;;6.19;84.79;102043.94;5020247;28;20230;-79
2021/11/15 07:13:07;;;;;;;30.97;20.60;;;;;;;6.22;84.84;102063.00;5032127;28;20222;-79
2021/11/15 07:15:33;;;;;;;39.33;22.33;;;;;;;6.21;84.46;102069.06;5028255;28;20208;-81
2021/11/15 07:18:00;;;;;;;33.10;21.17;;;;;;;6.21;84.90;102063.88;5034832;28;20260;-84
2021/11/15 07:20:27;;;;;;;33.37;21.30;;;;;;;6.22;84.38;102075.97;5036393;28;20226;-82
2021/11/15 07:22:53;;;;;;;29.40;20.03;;;;;;;6.21;84.63;102065.59;5032087;28;20218;-83
2021/11/15 07:25:22;;;;;;;37.67;24.90;;;;;;;6.22;84.48;102080.28;5035196;28;20205;-83
2021/11/15 07:27:51;;;;;;;27.83;20.70;;;;;;;6.18;84.54;102081.06;5034788;28;20207;-83
2021/11/15 07:30:18;;;;;;;29.47;20.43;;;;;;;6.19;83.78;102081.09;5032832;28;20214;-83
2021/11/15 07:32:45;;;;;;;29.27;21.03;;;;;;;6.16;84.76;102065.47;5035537;28;20207;-83
2021/11/15 07:35:12;;;;;;;28.33;20.00;;;;;;;6.18;84.45;102070.69;5035303;28;20209;-83
2021/11/15 07:37:38;;;;;;;31.57;22.27;;;;;;;6.17;84.93;102056.84;5037002;28;20276;-83
2021/11/15 07:40:07;;;;;;;37.97;22.40;;;;;;;6.18;84.31;102063.78;5034501;28;20210;-83
2021/11/15 07:42:33;;;;;;;31.17;21.90;;;;;;;6.18;84.56;102068.97;5034308;28;20625;-83
2021/11/15 07:45:02;;;;;;;28.17;20.43;;;;;;;6.16;85.10;102060.28;5034595;28;20233;-83
2021/11/15 07:47:29;;;;;;;36.17;20.87;;;;;;;6.20;84.28;102062.09;5042336;28;20213;-83
2021/11/15 07:49:55;;;;;;;31.63;20.10;;;;;;;6.20;84.69;102069.00;5045056;28;20207;-82
2021/11/15 07:52:22;;;;;;;30.37;20.60;;;;;;;6.18;84.36;102065.50;5044444;28;20234;-83
2021/11/15 07:54:49;;;;;;;32.23;19.73;;;;;;;6.16;84.87;102062.88;5043574;28;20190;-82
2021/11/15 07:57:17;;;;;;;31.23;21.03;;;;;;;6.15;85.05;102051.63;5046874;28;20206;-82
2021/11/15 07:59:44;;;;;;;34.20;19.93;;;;;;;6.18;84.70;102060.31;5046308;28;20270;-82
2021/11/15 08:02:13;;;;;;;29.93;20.43;;;;;;;6.22;85.19;102060.41;5044307;28;20245;-83
2021/11/15 08:04:41;;;;;;;43.23;21.50;;;;;;;6.21;85.10;102055.22;5048761;28;20198;-82
2021/11/15 08:07:07;;;;;;;31.67;20.63;;;;;;;6.21;85.28;102057.81;5045498;28;20213;-83
2021/11/15 08:09:34;;;;;;;30.90;19.93;;;;;;;6.22;85.39;102047.47;5045857;28;20205;-81
2021/11/15 08:12:05;;;;;;;33.70;21.83;;;;;;;6.23;85.02;102048.34;5045333;28;20226;-81
2021/11/15 08:14:32;;;;;;;35.07;21.77;;;;;;;6.19;85.07;102043.94;5046754;28;20206;-82
2021/11/15 08:16:59;;;;;;;31.70;20.87;;;;;;;6.20;85.45;102043.09;5025660;28;20205;-82
2021/11/15 08:19:27;;;;;;;36.37;21.53;;;;;;;6.21;84.76;102039.66;5025401;28;20817;-82
2021/11/15 08:21:53;;;;;;;34.37;22.27;;;;;;;6.21;85.20;102048.31;5029661;28;20243;-84
2021/11/15 08:24:57;;;;;;;40.13;22.63;;;;;;;6.23;85.07;102051.81;5028503;28;20209;-84
2021/11/15 08:27:23;;;;;;;34.03;21.27;;;;;;;6.26;84.98;102051.88;5029623;28;20210;-82
2021/11/15 08:29:50;;;;;;;32.23;20.83;;;;;;;6.22;84.77;102057.81;5027941;28;20217;-82
2021/11/15 08:32:17;;;;;;;38.57;22.73;;;;;;;6.27;84.45;102056.25;5027547;28;20245;-81
2021/11/15 08:34:45;;;;;;;43.77;23.40;;;;;;;6.22;84.51;102051.78;5027477;28;20204;-84
2021/11/15 08:37:13;;;;;;;44.23;23.30;;;;;;;6.19;84.88;102052.59;5027749;28;20212;-84
2021/11/15 08:39:40;;;;;;;38.23;22.33;;;;;;;6.23;84.70;102058.72;5025006;28;20217;-81
2021/11/15 08:42:09;;;;;;;42.20;22.50;;;;;;;6.25;84.34;102055.31;5029233;28;20248;-82
2021/11/15 08:44:41;;;;;;;43.70;24.03;;;;;;;6.24;85.10;102057.88;5028302;28;20202;-82
2021/11/15 08:47:08;;;;;;;52.87;24.23;;;;;;;6.25;85.20;102049.28;5026854;28;20212;-82
2021/11/15 08:49:36;;;;;;;38.97;24.30;;;;;;;6.24;84.57;102044.91;5025809;28;20210;-82
2021/11/15 08:52:06;;;;;;;41.40;25.60;;;;;;;6.26;84.81;102044.09;5029555;28;20660;-82
2021/11/15 08:54:32;;;;;;;40.47;24.80;;;;;;;6.28;84.75;102046.75;5027704;28;20281;-82
2021/11/15 08:57:01;;;;;;;47.10;23.13;;;;;;;6.28;84.80;102055.41;5027573;28;20263;-84
2021/11/15 08:59:29;;;;;;;41.10;25.23;;;;;;;6.26;84.49;102049.28;5025258;28;20623;-84
2021/11/15 09:01:56;;;;;;;44.67;25.70;;;;;;;6.26;84.27;102054.47;5026314;28;20250;-81
2021/11/15 09:04:23;;;;;;;43.10;26.30;;;;;;;6.26;84.50;102046.69;5027294;28;20210;-81
2021/11/15 09:06:49;;;;;;;36.93;23.20;;;;;;;6.31;84.68;102041.63;5027294;28;20206;-81
2021/11/15 09:09:18;;;;;;;47.37;26.43;;;;;;;6.26;84.65;102031.13;5026209;28;20265;-81
2021/11/15 09:11:45;;;;;;;42.37;25.93;;;;;;;6.28;84.09;102054.53;5028059;28;20227;-82
2021/11/15 09:14:12;;;;;;;42.87;24.70;;;;;;;6.25;84.47;102062.25;5027565;28;20263;-85
2021/11/15 09:16:39;;;;;;;46.53;25.53;;;;;;;6.27;83.92;102057.97;5027509;28;20225;-84
2021/11/15 09:19:05;;;;;;;50.37;30.50;;;;;;;6.24;84.42;102044.91;5026397;28;20408;-84
2021/11/15 09:21:32;;;;;;;36.27;23.60;;;;;;;6.28;84.69;102046.75;5025593;28;20308;-84
2021/11/15 09:23:58;;;;;;;47.53;28.17;;;;;;;6.29;84.46;102044.19;5026818;28;20233;-84
2021/11/15 09:26:28;;;;;;;35.67;22.50;;;;;;;6.30;85.06;102038.19;5026280;28;20205;-84
2021/11/15 09:28:54;;;;;;;46.37;23.60;;;;;;;6.29;84.76;102033.81;5027216;28;20213;-84
2021/11/15 09:31:21;;;;;;;35.97;22.10;;;;;;;6.28;85.43;102032.06;5025978;28;20287;-84
2021/11/15 09:33:48;;;;;;;39.90;23.53;;;;;;;6.30;85.01;102022.63;5027320;28;20721;-84
2021/11/15 09:36:16;;;;;;;39.43;23.10;;;;;;;6.33;84.91;102033.06;5026346;28;20276;-84
2021/11/15 09:38:44;;;;;;;44.67;25.83;;;;;;;6.34;84.63;102033.91;5027068;28;20213;-83
2021/11/15 09:41:11;;;;;;;47.33;26.93;;;;;;;6.39;84.50;102045.28;5028233;28;20703;-84
2021/11/15 09:43:39;;;;;;;43.10;25.90;;;;;;;6.38;84.61;102051.31;5030138;28;20424;-84
2021/11/15 09:46:07;;;;;;;39.47;23.20;;;;;;;6.35;84.72;102049.53;5028481;28;20226;-84
2021/11/15 09:48:37;;;;;;;50.90;28.43;;;;;;;6.39;84.76;102054.81;5028583;28;20202;-84
2021/11/15 09:51:05;;;;;;;35.80;22.40;;;;;;;6.41;84.08;102056.59;5026935;28;20226;-84
2021/11/15 09:53:32;;;;;;;36.70;23.23;;;;;;;6.42;84.88;102058.34;5024919;28;20213;-84
2021/11/15 09:56:00;;;;;;;44.70;28.50;;;;;;;6.43;84.09;102060.09;5027200;28;20204;-84
2021/11/15 09:58:27;;;;;;;52.70;28.37;;;;;;;6.45;84.06;102055.81;5027092;28;20206;-84
2021/11/15 10:00:55;;;;;;;52.07;30.10;;;;;;;6.46;83.96;102055.00;5025119;28;20260;-85
2021/11/15 10:03:21;;;;;;;43.17;28.20;;;;;;;6.50;84.31;102064.59;5025313;28;20758;-85
2021/11/15 10:08:46;;;;;;;36.30;23.40;;;;;;;6.48;84.18;102055.91;5024435;28;20840;-85
2021/11/15 10:11:13;;;;;;;40.00;22.57;;;;;;;6.51;84.31;102047.31;5024602;28;20240;-84
2021/11/15 10:13:41;;;;;;;36.10;21.43;;;;;;;6.52;84.33;102049.94;5026350;28;20205;-85
2021/11/15 10:16:12;;;;;;;37.83;21.93;;;;;;;6.54;84.10;102047.34;5027949;28;20209;-84
2021/11/15 10:18:50;;;;;;;33.03;23.83;;;;;;;6.56;84.35;102051.75;5026559;28;20212;-84
2021/11/15 10:21:21;;;;;;;35.17;21.90;;;;;;;6.53;84.18;102040.44;5027225;28;20238;-84
2021/11/15 10:23:50;;;;;;;39.20;23.20;;;;;;;6.58;84.14;102044.03;5025992;28;20202;-85
2021/11/15 10:26:23;;;;;;;38.27;22.73;;;;;;;6.53;84.49;102037.84;5024947;28;20221;-85
2021/11/15 10:28:53;;;;;;;32.93;23.47;;;;;;;6.51;84.66;102029.16;5026974;28;20208;-84
2021/11/15 10:31:37;;;;;;;36.87;24.73;;;;;;;6.49;84.89;102023.91;5026805;28;20227;-84
2021/11/15 10:34:06;;;;;;;31.87;22.00;;;;;;;6.43;84.99;102013.41;5025747;28;20239;-85
2021/11/15 10:36:48;;;;;;;34.23;24.73;;;;;;;6.49;84.69;102021.31;5024325;28;20638;-84
2021/11/15 10:39:16;;;;;;;33.63;22.27;;;;;;;6.50;84.56;102023.09;5024709;28;21160;-84
2021/11/15 10:41:42;;;;;;;29.97;20.77;;;;;;;6.51;84.22;102030.00;5026842;28;20249;-84
2021/11/15 10:44:12;;;;;;;30.40;20.57;;;;;;;6.57;83.50;102044.84;5024432;28;20209;-84
2021/11/15 10:46:41;;;;;;;25.93;19.03;;;;;;;6.59;83.97;102057.88;5024741;28;20222;-83
2021/11/15 10:49:11;;;;;;;32.57;22.57;;;;;;;6.55;83.93;102067.28;5023792;28;20244;-85
2021/11/15 10:51:49;;;;;;;33.43;24.13;;;;;;;6.61;84.03;102059.66;5021126;28;20736;-88
2021/11/15 10:54:58;;;;;;;39.37;27.03;;;;;;;6.65;83.11;102077.03;5022960;28;20447;-83
2021/11/15 10:57:48;;;;;;;29.43;20.20;;;;;;;6.65;83.17;102090.00;5023575;28;20956;-81
2021/11/15 11:00:27;;;;;;;32.50;22.43;;;;;;;6.69;82.29;102104.81;5019727;28;20252;-83
2021/11/15 11:03:04;;;;;;;35.03;22.90;;;;;;;6.69;82.96;102071.06;5018178;28;20218;-81
2021/11/15 11:05:31;;;;;;;36.27;22.67;;;;;;;6.68;82.77;102071.03;5019087;28;20224;-80
2021/11/15 11:08:10;;;;;;;33.87;23.97;;;;;;;6.68;82.12;102081.41;5019432;28;20288;-83
2021/11/15 11:10:48;;;;;;;36.60;23.00;;;;;;;6.71;82.85;102068.53;5021718;28;20848;-85
2021/11/15 11:13:16;;;;;;;39.37;27.20;;;;;;;6.75;82.00;102093.69;5022525;28;20229;-85
2021/11/15 11:15:46;;;;;;;41.43;24.83;;;;;;;6.73;81.71;102109.22;5020699;28;20198;-80
2021/11/15 11:18:17;;;;;;;38.43;25.83;;;;;;;6.71;81.12;102118.69;5021312;28;20302;-81
2021/11/15 11:21:13;;;;;;;36.23;24.43;;;;;;;6.67;81.56;102108.22;5020037;28;20293;-83
2021/11/15 11:26:41;;;;;;;38.40;25.40;;;;;;;6.66;80.95;102096.06;5019454;28;20224;-83